Time;durP1;ratioP1;P1;durP2;ratioP2;P2;SDS_P1;SDS_P2;PMS_P1;PMS_P2;Temp;Humidity;BMP_temperature;BMP_pressure;BME280_temperature;BME280_humidity;BME280_pressure;Samples;Min_cycle;Max_cycle;Signal;HPM_P1;HPM_P2
2023/06/17 00:01:37;;;;;;;7.53;4.13;;;16.40;99.90;;;;;;4946349;29;20400;-63
2023/06/17 00:04:03;;;;;;;4.70;4.07;;;16.30;99.90;;;;;;4945891;29;20035;-62
2023/06/17 00:06:37;;;;;;;5.70;4.82;;;16.20;99.90;;;;;;4948362;29;20043;-63
2023/06/17 00:09:13;;;;;;;7.85;4.57;;;16.10;91.60;;;;;;4948521;29;20531;-63
2023/06/17 00:11:39;;;;;;;5.57;3.97;;;16.10;91.90;;;;;;4946390;29;20036;-61
2023/06/17 00:14:10;;;;;;;4.20;3.80;;;16.10;91.90;;;;;;4946536;29;20117;-62
2023/06/17 00:16:43;;;;;;;6.38;4.32;;;16.10;91.90;;;;;;4954361;29;20098;-63
2023/06/17 00:19:20;;;;;;;6.07;4.10;;;16.10;91.90;;;;;;4953378;28;20126;-63
2023/06/17 00:21:52;;;;;;;4.72;3.88;;;;;;;;;;4950841;29;20035;-64
2023/06/17 00:24:18;;;;;;;5.90;3.83;;;16.10;91.90;;;;;;4952452;29;20070;-62
2023/06/17 00:26:44;;;;;;;5.13;4.00;;;16.10;92.30;;;;;;4947211;29;20031;-65
2023/06/17 00:29:23;;;;;;;4.50;4.07;;;16.00;92.40;;;;;;4953795;29;20041;-61
2023/06/17 00:31:51;;;;;;;5.03;3.50;;;15.90;92.70;;;;;;4953430;29;20511;-61
2023/06/17 00:34:17;;;;;;;4.93;3.65;;;15.90;92.90;;;;;;4953820;29;20082;-61
2023/06/17 00:36:48;;;;;;;4.20;3.75;;;15.80;93.00;;;;;;4953641;29;20031;-65
2023/06/17 00:39:15;;;;;;;5.85;4.32;;;15.70;93.40;;;;;;4950713;29;20039;-61
2023/06/17 00:41:43;;;;;;;4.75;3.80;;;15.70;93.70;;;;;;4948384;29;20085;-65
2023/06/17 00:44:18;;;;;;;4.40;3.83;;;15.60;94.00;;;;;;4953220;29;20037;-61
2023/06/17 00:49:38;;;;;;;5.57;4.10;;;;;;;;;;4942675;29;20055;-61
2023/06/17 00:52:06;;;;;;;5.07;3.90;;;15.50;94.80;;;;;;4953330;29;20066;-62
2023/06/17 00:54:32;;;;;;;5.55;3.95;;;15.40;95.20;;;;;;4952785;29;20393;-62
2023/06/17 00:57:13;;;;;;;5.20;4.00;;;15.30;95.60;;;;;;4944797;29;20059;-61
2023/06/17 00:59:42;;;;;;;5.85;3.92;;;15.30;96.00;;;;;;4944189;29;20031;-61
2023/06/17 01:02:15;;;;;;;9.45;4.80;;;15.30;96.50;;;;;;4939722;29;20043;-62
2023/06/17 01:04:46;;;;;;;4.78;4.25;;;15.30;96.90;;;;;;4947257;29;20031;-64
2023/06/17 01:07:45;;;;;;;5.90;3.92;;;15.30;97.10;;;;;;4953929;29;20031;-62
2023/06/17 01:10:31;;;;;;;7.33;4.70;;;15.30;97.40;;;;;;4948486;29;20038;-62
2023/06/17 01:12:58;;;;;;;9.27;5.00;;;15.20;97.70;;;;;;4938712;29;20291;-62
2023/06/17 01:15:27;;;;;;;5.30;4.25;;;15.30;98.40;;;;;;4952884;29;20495;-62
2023/06/17 01:17:54;;;;;;;10.07;4.65;;;15.30;98.60;;;;;;4947557;29;20067;-61
2023/06/17 01:20:55;;;;;;;5.57;4.20;;;15.20;98.70;;;;;;4947290;29;20046;-64
2023/06/17 01:23:15;;;;;;;5.97;4.60;;;15.10;98.90;;;;;;4937908;29;20052;-63
2023/06/17 01:25:45;;;;;;;10.05;4.65;;;15.10;99.30;;;;;;4945158;29;20023;-65
2023/06/17 01:28:33;;;;;;;4.93;4.27;;;15.00;99.80;;;;;;4945974;29;20034;-62
2023/06/17 01:31:04;;;;;;;5.72;4.80;;;;;;;;;;4951024;28;20031;-62
2023/06/17 01:33:30;;;;;;;5.95;4.68;;;;;;;;;;4952770;29;20035;-62
2023/06/17 01:36:06;;;;;;;8.77;4.60;;;;;;;;;;4951754;29;20027;-61
2023/06/17 01:38:37;;;;;;;7.85;4.72;;;;;;;;;;4953206;29;20110;-62
2023/06/17 01:41:05;;;;;;;7.18;4.25;;;;;;;;;;4951508;29;20724;-62
2023/06/17 01:43:35;;;;;;;4.70;4.30;;;;;;;;;;4952996;29;20035;-64
2023/06/17 01:46:04;;;;;;;6.15;4.60;;;;;;;;;;4946152;29;20850;-62
2023/06/17 01:48:30;;;;;;;7.05;4.97;;;;;;;;;;4951987;29;20027;-63
2023/06/17 01:50:56;;;;;;;6.47;4.40;;;;;;;;;;4951384;29;20400;-63
2023/06/17 01:53:24;;;;;;;7.28;5.20;;;;;;;;;;4952957;29;20019;-61
2023/06/17 01:55:57;;;;;;;5.38;4.35;;;;;;;;;;4951388;29;20493;-62
2023/06/17 01:58:25;;;;;;;9.00;4.30;;;;;;;;;;4953044;29;20035;-62
2023/06/17 02:00:51;;;;;;;7.80;5.38;;;;;;;;;;4949893;29;20035;-62
2023/06/17 02:03:17;;;;;;;6.13;5.03;;;;;;;;;;4950397;29;20462;-61
2023/06/17 02:05:44;;;;;;;6.05;4.93;;;;;;;;;;4952113;29;20023;-64
2023/06/17 02:08:11;;;;;;;8.57;5.15;;;;;;;;;;4952809;29;20031;-61
2023/06/17 02:10:37;;;;;;;12.13;5.00;;;;;;;;;;4950151;29;20986;-61
2023/06/17 02:13:04;;;;;;;4.90;4.38;;;;;;;;;;4942643;29;20024;-61
2023/06/17 02:15:35;;;;;;;6.20;4.85;;;;;;;;;;4928904;29;20117;-62
2023/06/17 02:18:01;;;;;;;7.45;4.72;;;;;;;;;;4943303;29;20584;-61
2023/06/17 02:20:27;;;;;;;7.82;4.90;;;;;;;;;;4941752;29;20122;-61
2023/06/17 02:22:53;;;;;;;6.95;4.60;;;;;;;;;;4942004;29;20027;-62
2023/06/17 02:25:25;;;;;;;6.50;4.50;;;;;;;;;;4941400;29;20047;-62
2023/06/17 02:27:51;;;;;;;4.95;4.40;;;14.90;99.90;;;;;;4941577;29;20098;-62
2023/06/17 02:30:20;;;;;;;6.72;4.95;;;14.80;99.90;;;;;;4951880;29;20472;-62
2023/06/17 02:32:45;;;;;;;6.22;4.90;;;14.60;99.90;;;;;;4951595;29;20487;-67
2023/06/17 02:35:11;;;;;;;5.40;4.50;;;14.50;99.90;;;;;;4952221;29;20038;-61
2023/06/17 02:37:40;;;;;;;6.45;5.13;;;14.40;99.90;;;;;;4952372;29;20436;-62
2023/06/17 02:40:11;;;;;;;8.18;4.78;;;14.40;99.90;;;;;;4943856;29;20039;-61
2023/06/17 02:42:40;;;;;;;7.35;4.90;;;14.30;99.90;;;;;;4952963;28;20027;-61
2023/06/17 02:45:11;;;;;;;7.43;4.78;;;14.30;99.90;;;;;;4952512;29;20039;-61
2023/06/17 02:47:37;;;;;;;6.13;4.75;;;14.20;99.90;;;;;;4956486;29;20035;-61
2023/06/17 02:50:04;;;;;;;6.88;4.75;;;14.20;99.90;;;;;;4953952;29;20641;-61
2023/06/17 02:52:34;;;;;;;9.15;5.55;;;14.10;99.90;;;;;;4955744;29;20027;-62
2023/06/17 02:55:06;;;;;;;7.67;5.30;;;14.10;99.90;;;;;;4954218;28;20077;-62
2023/06/17 02:57:38;;;;;;;6.40;5.15;;;14.10;99.90;;;;;;4955776;29;20034;-62
2023/06/17 03:00:10;;;;;;;9.93;5.22;;;14.10;99.90;;;;;;4954182;29;20090;-62
2023/06/17 03:02:47;;;;;;;8.48;5.55;;;14.00;99.90;;;;;;4950469;29;20050;-61
2023/06/17 03:05:14;;;;;;;5.88;5.18;;;14.00;99.90;;;;;;4953412;29;20063;-61
2023/06/17 03:07:46;;;;;;;8.27;5.10;;;14.00;99.90;;;;;;4955150;29;20531;-62
2023/06/17 03:10:16;;;;;;;7.45;5.95;;;14.00;99.90;;;;;;4955503;29;20102;-61
2023/06/17 03:12:45;;;;;;;7.50;5.95;;;14.00;99.90;;;;;;4944047;29;20093;-64
2023/06/17 03:15:13;;;;;;;7.25;4.90;;;14.00;99.90;;;;;;4943839;29;20065;-62
2023/06/17 03:17:44;;;;;;;9.00;5.32;;;14.00;99.90;;;;;;4947669;29;20050;-62
2023/06/17 03:20:10;;;;;;;7.40;5.30;;;14.00;99.90;;;;;;4942852;29;20028;-62
2023/06/17 03:22:39;;;;;;;8.63;5.60;;;14.00;99.90;;;;;;4945853;29;21763;-62
2023/06/17 03:25:07;;;;;;;8.10;5.35;;;14.00;99.90;;;;;;4942716;29;20019;-74
2023/06/17 03:27:35;;;;;;;9.23;5.75;;;13.90;99.90;;;;;;4940422;29;20043;-73
2023/06/17 03:30:02;;;;;;;7.85;5.15;;;13.90;99.90;;;;;;4942936;29;20237;-73
2023/06/17 03:32:30;;;;;;;10.10;5.72;;;13.90;99.90;;;;;;4942029;29;20042;-73
2023/06/17 03:34:59;;;;;;;8.50;5.88;;;13.90;99.90;;;;;;4946983;29;20035;-75
2023/06/17 03:37:24;;;;;;;8.00;5.57;;;13.90;99.90;;;;;;4954979;29;20046;-75
2023/06/17 03:39:58;;;;;;;8.30;5.57;;;14.00;99.90;;;;;;4952997;29;20035;-74
2023/06/17 03:42:24;;;;;;;8.60;5.78;;;14.00;99.90;;;;;;4954543;29;20401;-74
2023/06/17 03:44:50;;;;;;;8.02;5.75;;;14.00;99.90;;;;;;4948073;29;20034;-74
2023/06/17 03:47:15;;;;;;;7.68;6.00;;;14.10;99.90;;;;;;4954711;29;20042;-73
2023/06/17 03:49:42;;;;;;;6.78;5.40;;;14.10;99.90;;;;;;4954461;29;20039;-75
2023/06/17 03:52:13;;;;;;;6.75;5.30;;;14.10;99.90;;;;;;4947960;29;20103;-74
2023/06/17 03:54:39;;;;;;;6.88;5.53;;;14.10;99.90;;;;;;4952487;28;20482;-74
2023/06/17 03:57:15;;;;;;;10.35;5.75;;;14.20;99.90;;;;;;4954041;29;20023;-73
2023/06/17 03:59:41;;;;;;;9.27;5.97;;;14.10;99.90;;;;;;4954271;29;20035;-74
2023/06/17 04:02:14;;;;;;;6.07;5.07;;;14.10;99.90;;;;;;4953628;29;20063;-75
2023/06/17 04:04:40;;;;;;;8.40;5.68;;;14.10;99.90;;;;;;4954299;29;20038;-72
2023/06/17 04:07:34;;;;;;;8.55;5.90;;;14.20;99.90;;;;;;4953462;29;20039;-74
2023/06/17 04:10:03;;;;;;;9.20;6.03;;;14.20;99.90;;;;;;4926001;29;20040;-75
2023/06/17 04:12:31;;;;;;;8.00;5.97;;;14.20;99.90;;;;;;4941885;29;20028;-74
2023/06/17 04:15:05;;;;;;;8.05;6.07;;;14.30;99.90;;;;;;4943764;29;20133;-73
2023/06/17 04:17:31;;;;;;;8.32;5.60;;;14.30;99.90;;;;;;4942094;29;20063;-74
2023/06/17 04:20:15;;;;;;;6.55;5.18;;;14.30;99.90;;;;;;4942438;29;20201;-73
2023/06/17 04:22:46;;;;;;;10.05;5.72;;;14.40;99.90;;;;;;4941910;29;20381;-73
2023/06/17 04:25:20;;;;;;;7.82;6.72;;;14.40;99.90;;;;;;4944129;29;20058;-74
2023/06/17 04:27:49;;;;;;;8.32;6.22;;;14.50;99.90;;;;;;4942032;29;20043;-74
2023/06/17 04:30:15;;;;;;;10.00;5.90;;;14.50;99.90;;;;;;4952081;29;20114;-73
2023/06/17 04:32:43;;;;;;;6.43;5.30;;;14.50;99.90;;;;;;4947147;29;20035;-74
2023/06/17 04:35:18;;;;;;;6.68;5.30;;;14.60;99.90;;;;;;4944033;29;20114;-74
2023/06/17 04:37:53;;;;;;;9.52;5.32;;;14.60;99.90;;;;;;4941772;29;20039;-74
2023/06/17 04:40:32;;;;;;;8.40;6.10;;;14.70;99.90;;;;;;4947419;29;20228;-73
2023/06/17 04:43:01;;;;;;;7.55;5.72;;;14.80;99.90;;;;;;4944465;29;20396;-74
2023/06/17 04:45:29;;;;;;;8.02;5.38;;;14.80;99.90;;;;;;4951570;29;20031;-74
2023/06/17 04:47:54;;;;;;;7.95;6.20;;;14.90;99.90;;;;;;4952755;29;20110;-73
2023/06/17 04:50:20;;;;;;;7.43;5.65;;;14.90;99.90;;;;;;4953575;29;20137;-75
2023/06/17 04:52:52;;;;;;;7.18;5.82;;;15.00;99.90;;;;;;4952805;29;20452;-74
2023/06/17 04:55:36;;;;;;;8.15;6.10;;;15.00;99.90;;;;;;4952707;28;20601;-76
2023/06/17 04:58:03;;;;;;;6.90;5.60;;;15.10;99.90;;;;;;4949909;29;20090;-75
2023/06/17 05:00:30;;;;;;;6.93;5.60;;;15.10;99.90;;;;;;4947181;29;20470;-75
2023/06/17 05:02:58;;;;;;;6.72;5.70;;;15.20;99.90;;;;;;4947187;29;20043;-74
2023/06/17 05:05:26;;;;;;;8.15;6.28;;;15.20;99.90;;;;;;4952513;28;20055;-75
2023/06/17 05:07:52;;;;;;;6.88;5.80;;;15.30;99.90;;;;;;4950454;29;20477;-75
2023/06/17 05:10:20;;;;;;;7.78;6.25;;;15.40;99.90;;;;;;4949642;29;20031;-75
2023/06/17 05:12:46;;;;;;;12.30;6.88;;;15.40;99.90;;;;;;4943092;29;20039;-74
2023/06/17 05:15:23;;;;;;;9.38;6.38;;;15.50;99.90;;;;;;4943665;29;20111;-73
2023/06/17 05:17:52;;;;;;;9.35;6.72;;;15.60;99.90;;;;;;4940423;29;20020;-73
2023/06/17 05:20:17;;;;;;;10.18;6.93;;;15.70;99.90;;;;;;4943108;29;20043;-73
2023/06/17 05:22:46;;;;;;;12.93;8.57;;;15.80;99.90;;;;;;4939838;29;20031;-74
2023/06/17 05:25:11;;;;;;;13.32;7.75;;;15.90;99.90;;;;;;4937601;29;20035;-75
2023/06/17 05:27:40;;;;;;;10.02;7.18;;;16.00;99.90;;;;;;4942608;29;20058;-74
2023/06/17 05:30:09;;;;;;;11.40;7.32;;;16.10;99.90;;;;;;4941402;29;20031;-73
2023/06/17 05:32:34;;;;;;;9.13;7.22;;;16.20;99.90;;;;;;4940083;29;20039;-72
2023/06/17 05:35:02;;;;;;;9.95;7.05;;;16.20;99.90;;;;;;4944208;29;20036;-74
2023/06/17 05:37:31;;;;;;;9.52;6.57;;;16.20;99.90;;;;;;4940896;29;20035;-74
2023/06/17 05:40:00;;;;;;;11.25;7.25;;;16.20;99.90;;;;;;4940700;29;20035;-73
2023/06/17 05:42:28;;;;;;;11.65;7.90;;;16.30;99.90;;;;;;4943397;29;20050;-73
2023/06/17 05:44:56;;;;;;;8.30;6.78;;;16.30;99.90;;;;;;4941583;29;20027;-73
2023/06/17 05:47:22;;;;;;;13.30;7.78;;;16.30;99.90;;;;;;4951945;29;20031;-73
2023/06/17 05:49:47;;;;;;;9.02;7.63;;;16.30;99.90;;;;;;4951721;29;20038;-74
2023/06/17 05:52:16;;;;;;;9.45;7.93;;;16.40;99.90;;;;;;4952955;29;20027;-74
2023/06/17 05:54:41;;;;;;;9.60;6.88;;;16.50;99.90;;;;;;4951945;29;20030;-73
2023/06/17 05:57:11;;;;;;;9.63;7.50;;;16.60;99.90;;;;;;4952648;29;20411;-74
2023/06/17 05:59:36;;;;;;;9.48;6.38;;;16.80;99.90;;;;;;4952290;29;20468;-74
2023/06/17 06:02:02;;;;;;;10.95;7.35;;;17.00;99.90;;;;;;4949169;29;20046;-74
2023/06/17 06:04:36;;;;;;;13.32;7.95;;;17.20;99.90;;;;;;4945912;29;20114;-71
2023/06/17 06:07:11;;;;;;;10.13;7.15;;;17.40;99.90;;;;;;4941962;29;20055;-71
2023/06/17 06:09:37;;;;;;;11.75;8.07;;;17.50;99.90;;;;;;4943615;29;20031;-70
2023/06/17 06:12:03;;;;;;;15.90;7.75;;;17.60;99.90;;;;;;4941264;29;20031;-69
2023/06/17 06:14:32;;;;;;;12.32;7.32;;;17.80;99.90;;;;;;4935997;29;20113;-69
2023/06/17 06:17:03;;;;;;;10.30;7.57;;;17.90;99.90;;;;;;4941597;28;20039;-70
2023/06/17 06:19:37;;;;;;;9.90;8.02;;;18.10;99.70;;;;;;4944363;29;20035;-69
2023/06/17 06:22:03;;;;;;;10.13;7.55;;;18.30;99.50;;;;;;4942917;29;20027;-70
2023/06/17 06:24:31;;;;;;;9.98;7.30;;;18.40;99.00;;;;;;4942739;29;20105;-70
2023/06/17 06:26:57;;;;;;;11.35;6.95;;;18.60;98.60;;;;;;4932465;29;20031;-70
2023/06/17 06:29:22;;;;;;;9.65;7.50;;;18.70;98.50;;;;;;4946801;29;20400;-70
2023/06/17 06:31:48;;;;;;;8.43;7.22;;;18.90;98.30;;;;;;4944491;29;20039;-70
2023/06/17 06:34:21;;;;;;;8.43;6.90;;;19.00;98.00;;;;;;4944394;29;20031;-70
2023/06/17 06:36:47;;;;;;;9.13;7.38;;;19.00;97.90;;;;;;4951573;29;20052;-70
2023/06/17 06:39:12;;;;;;;10.05;6.80;;;19.10;97.70;;;;;;4955441;29;20059;-69
2023/06/17 06:41:38;;;;;;;12.35;8.23;;;19.20;97.30;;;;;;4956305;29;20099;-70
2023/06/17 06:44:03;;;;;;;10.90;7.78;;;19.40;97.20;;;;;;4947104;29;21002;-70
2023/06/17 06:46:31;;;;;;;10.10;7.10;;;19.60;96.90;;;;;;4945229;29;20111;-70
2023/06/17 06:48:59;;;;;;;10.68;7.72;;;19.70;96.50;;;;;;4934159;29;20031;-71
2023/06/17 06:51:27;;;;;;;11.20;7.53;;;19.80;96.30;;;;;;4955589;29;20039;-69
2023/06/17 06:54:05;;;;;;;8.95;7.18;;;19.90;96.20;;;;;;4953113;29;20039;-69
2023/06/17 06:56:30;;;;;;;11.88;7.93;;;19.90;96.60;;;;;;4946755;29;20043;-71
2023/06/17 06:58:56;;;;;;;8.35;6.70;;;20.10;95.50;;;;;;4946837;29;20031;-69
2023/06/17 07:01:29;;;;;;;12.02;7.10;;;20.20;95.30;;;;;;4954161;29;20070;-72
2023/06/17 07:03:55;;;;;;;10.20;8.10;;;20.20;95.10;;;;;;4950057;29;20119;-69
2023/06/17 07:06:20;;;;;;;12.35;7.97;;;20.30;95.40;;;;;;4952339;29;20024;-72
2023/06/17 07:08:46;;;;;;;11.68;7.45;;;20.50;94.70;;;;;;4953055;29;20114;-62
2023/06/17 07:11:11;;;;;;;9.50;7.13;;;20.60;94.40;;;;;;4954675;29;20031;-62
2023/06/17 07:13:37;;;;;;;12.32;7.80;;;20.70;94.10;;;;;;4954316;29;20059;-63
2023/06/17 07:16:04;;;;;;;11.90;7.03;;;20.80;94.30;;;;;;4950124;29;20015;-61
2023/06/17 07:18:30;;;;;;;10.00;7.63;;;20.90;94.10;;;;;;4945641;29;21262;-62
2023/06/17 07:20:55;;;;;;;11.05;7.10;;;21.10;93.50;;;;;;4942827;29;20126;-62
2023/06/17 07:23:22;;;;;;;8.88;7.05;;;21.20;93.50;;;;;;4940418;29;20047;-62
2023/06/17 07:25:48;;;;;;;10.25;7.13;;;21.40;93.10;;;;;;4943785;29;20046;-61
2023/06/17 07:28:14;;;;;;;10.45;6.95;;;21.50;92.90;;;;;;4948693;29;20570;-61
2023/06/17 07:30:40;;;;;;;13.60;7.47;;;21.60;92.60;;;;;;4946436;28;20082;-61
2023/06/17 07:33:06;;;;;;;13.02;7.43;;;21.80;92.40;;;;;;4946750;29;20122;-62
2023/06/17 07:35:32;;;;;;;12.82;7.72;;;22.00;91.90;;;;;;4944783;29;20076;-61
2023/06/17 07:37:58;;;;;;;9.43;6.72;;;22.10;91.60;;;;;;4946916;29;20100;-60
2023/06/17 07:40:23;;;;;;;11.30;7.18;;;22.20;91.10;;;;;;4941908;29;20031;-61
2023/06/17 07:42:49;;;;;;;8.63;6.93;;;22.30;91.10;;;;;;4942946;29;20050;-61
2023/06/17 07:45:15;;;;;;;10.60;7.70;;;22.40;90.70;;;;;;4943079;29;20078;-61
2023/06/17 07:47:41;;;;;;;12.43;7.20;;;22.60;90.40;;;;;;4944133;29;20054;-62
2023/06/17 07:50:10;;;;;;;11.20;7.07;;;22.70;90.60;;;;;;4946035;29;20164;-61
2023/06/17 07:52:36;;;;;;;9.13;6.53;;;22.80;90.20;;;;;;4922871;29;20118;-62
2023/06/17 07:55:03;;;;;;;11.73;6.65;;;22.90;90.40;;;;;;4906308;29;1099274;-62
2023/06/17 07:57:28;;;;;;;13.52;6.85;;;23.00;89.80;;;;;;4953142;29;20500;-60
2023/06/17 07:59:54;;;;;;;9.45;7.03;;;23.20;89.70;;;;;;4956078;29;20035;-63
2023/06/17 08:02:21;;;;;;;9.00;6.88;;;23.30;89.30;;;;;;4954111;29;20122;-64
2023/06/17 08:04:47;;;;;;;8.88;6.60;;;23.40;88.70;;;;;;4948299;29;20027;-64
2023/06/17 08:07:13;;;;;;;11.60;6.97;;;23.50;88.50;;;;;;4943025;29;20055;-63
2023/06/17 08:09:39;;;;;;;9.95;7.35;;;23.70;87.90;;;;;;4941190;29;20079;-64
2023/06/17 08:12:05;;;;;;;8.48;6.78;;;23.80;86.60;;;;;;4929561;29;20276;-64
2023/06/17 08:14:31;;;;;;;11.90;7.40;;;23.80;86.60;;;;;;4943318;29;20519;-63
2023/06/17 08:16:57;;;;;;;9.70;7.13;;;23.70;86.60;;;;;;4946883;29;20032;-63
2023/06/17 08:19:22;;;;;;;9.50;7.13;;;23.80;86.20;;;;;;4945044;29;20392;-62
2023/06/17 08:21:49;;;;;;;9.07;6.50;;;23.90;85.80;;;;;;4930055;29;20086;-62
2023/06/17 08:24:22;;;;;;;9.82;6.32;;;24.00;86.10;;;;;;4941556;29;20039;-60
2023/06/17 08:26:49;;;;;;;9.13;6.53;;;24.10;85.00;;;;;;4940828;29;20035;-61
2023/06/17 08:29:15;;;;;;;13.05;7.13;;;24.30;84.70;;;;;;4944052;29;20062;-62
2023/06/17 08:31:45;;;;;;;11.82;6.45;;;24.40;83.00;;;;;;4943043;29;20063;-61
2023/06/17 08:34:11;;;;;;;8.85;6.57;;;24.40;82.40;;;;;;4945892;29;20063;-62
2023/06/17 08:36:38;;;;;;;12.60;6.28;;;24.40;82.10;;;;;;4930249;29;20421;-74
2023/06/17 08:39:04;;;;;;;9.23;6.40;;;24.40;81.10;;;;;;4949915;29;20031;-72
2023/06/17 08:41:30;;;;;;;7.43;6.03;;;24.50;80.20;;;;;;4953463;28;20038;-75
2023/06/17 08:44:00;;;;;;;7.50;5.65;;;24.60;79.90;;;;;;4952595;29;20027;-70
2023/06/17 08:46:27;;;;;;;9.35;5.65;;;24.70;78.90;;;;;;4953506;29;20107;-74
2023/06/17 08:48:53;;;;;;;6.93;5.78;;;24.80;79.20;;;;;;4946218;29;20039;-71
2023/06/17 08:51:19;;;;;;;8.68;5.68;;;25.00;79.40;;;;;;4953636;29;20030;-76
2023/06/17 08:53:47;;;;;;;9.05;6.00;;;25.20;77.80;;;;;;4952647;29;20118;-73
2023/06/17 08:56:13;;;;;;;7.70;5.97;;;25.40;73.40;;;;;;4944619;29;20023;-76
2023/06/17 08:58:39;;;;;;;10.73;5.30;;;25.40;74.40;;;;;;4939623;29;20027;-77
2023/06/17 09:01:08;;;;;;;7.13;5.40;;;25.50;74.30;;;;;;4943307;29;20039;-76
2023/06/17 09:03:38;;;;;;;10.55;6.07;;;25.60;75.00;;;;;;4941263;29;20035;-75
2023/06/17 09:06:14;;;;;;;7.38;5.68;;;25.90;73.80;;;;;;4941337;29;20019;-76
2023/06/17 09:08:41;;;;;;;7.88;5.10;;;26.00;73.90;;;;;;4937478;29;20035;-76
2023/06/17 09:11:07;;;;;;;7.35;5.97;;;26.20;72.90;;;;;;4942365;29;20063;-76
2023/06/17 09:13:33;;;;;;;5.95;5.00;;;26.20;72.30;;;;;;4945190;29;20457;-75
2023/06/17 09:15:59;;;;;;;6.43;5.82;;;26.40;71.80;;;;;;4943718;29;20086;-75
2023/06/17 09:18:25;;;;;;;6.50;5.53;;;26.60;71.20;;;;;;4944293;29;20042;-74
2023/06/17 09:20:55;;;;;;;12.45;5.97;;;26.70;70.80;;;;;;4949384;29;20396;-75
2023/06/17 09:23:22;;;;;;;8.82;5.05;;;27.00;68.70;;;;;;4952939;29;20027;-75
2023/06/17 09:25:48;;;;;;;6.20;5.25;;;26.90;68.50;;;;;;4944665;29;20094;-76
2023/06/17 09:28:15;;;;;;;7.28;4.97;;;26.90;68.10;;;;;;4953416;29;20421;-75
2023/06/17 09:30:43;;;;;;;6.13;5.20;;;27.00;68.20;;;;;;4952834;29;20034;-76
2023/06/17 09:33:19;;;;;;;8.23;5.18;;;27.10;68.40;;;;;;4952844;29;20031;-76
2023/06/17 09:35:46;;;;;;;5.63;4.90;;;27.30;71.10;;;;;;4948995;29;20050;-75
2023/06/17 09:38:17;;;;;;;8.40;5.47;;;27.40;70.40;;;;;;4951955;29;20102;-78
2023/06/17 09:40:42;;;;;;;6.63;4.32;;;27.60;67.10;;;;;;4951323;29;20035;-75
2023/06/17 09:43:11;;;;;;;5.78;5.00;;;27.70;66.00;;;;;;4952704;29;20094;-76
2023/06/17 09:45:39;;;;;;;8.33;4.93;;;27.60;65.60;;;;;;4942175;29;20031;-76
2023/06/17 09:48:07;;;;;;;6.88;5.07;;;27.50;66.50;;;;;;4945330;29;20520;-76
2023/06/17 09:50:37;;;;;;;8.88;5.28;;;27.30;66.40;;;;;;4939088;29;20031;-75
2023/06/17 09:53:02;;;;;;;6.10;4.40;;;27.10;66.50;;;;;;4941170;28;20114;-76
2023/06/17 09:55:29;;;;;;;6.32;4.72;;;27.00;66.20;;;;;;4943901;29;20129;-76
2023/06/17 09:57:55;;;;;;;7.72;4.25;;;26.90;65.20;;;;;;4941149;29;20171;-75
2023/06/17 10:00:24;;;;;;;4.45;4.05;;;26.90;63.20;;;;;;4947361;29;20035;-75
2023/06/17 10:02:53;;;;;;;5.03;4.20;;;26.90;64.30;;;;;;4945687;29;20440;-75
2023/06/17 10:05:23;;;;;;;8.30;4.25;;;27.00;64.00;;;;;;4944110;29;20039;-76
2023/06/17 10:07:51;;;;;;;4.82;4.32;;;27.20;64.20;;;;;;4945163;29;20353;-75
2023/06/17 10:10:18;;;;;;;5.53;4.20;;;27.40;65.20;;;;;;4942466;29;20030;-76
2023/06/17 10:12:45;;;;;;;6.13;4.80;;;27.80;78.50;;;;;;4947346;29;20039;-74
2023/06/17 10:15:12;;;;;;;6.25;4.22;;;28.10;84.60;;;;;;4947750;29;20119;-78
2023/06/17 10:17:40;;;;;;;4.70;4.30;;;28.30;84.40;;;;;;4948062;29;20023;-75
2023/06/17 10:20:08;;;;;;;5.90;4.88;;;28.60;85.10;;;;;;4940635;29;20039;-77
2023/06/17 10:22:38;;;;;;;6.40;4.60;;;28.80;84.00;;;;;;4947302;29;20081;-76
2023/06/17 10:25:10;;;;;;;8.10;4.70;;;28.70;83.40;;;;;;4946765;29;20625;-78
2023/06/17 10:37:00;;;;;;;5.95;4.20;;;27.90;84.30;;;;;;4944446;28;20113;-78
2023/06/17 10:39:29;;;;;;;5.15;4.50;;;28.00;84.10;;;;;;4949139;29;20039;-74
2023/06/17 10:42:02;;;;;;;5.10;4.38;;;28.10;83.00;;;;;;4952158;29;20035;-78
2023/06/17 10:44:33;;;;;;;9.80;4.20;;;28.30;82.90;;;;;;4945804;29;20027;-76
2023/06/17 10:46:59;;;;;;;6.63;4.00;;;28.30;81.90;;;;;;4954621;29;20051;-65
2023/06/17 10:49:25;;;;;;;5.00;4.20;;;28.30;82.20;;;;;;4929837;29;20115;-64
2023/06/17 10:51:56;;;;;;;5.50;4.85;;;28.30;82.40;;;;;;4955306;29;20039;-63
2023/06/17 10:54:30;;;;;;;5.72;5.10;;;28.10;82.00;;;;;;4955099;29;20041;-63
2023/06/17 10:56:56;;;;;;;7.03;4.88;;;28.20;81.10;;;;;;4956005;29;20166;-63
2023/06/17 10:59:25;;;;;;;7.15;4.75;;;28.20;81.30;;;;;;4955081;29;20028;-63
2023/06/17 11:01:58;;;;;;;4.70;4.30;;;28.10;81.60;;;;;;4947756;29;20035;-63
2023/06/17 11:04:26;;;;;;;4.43;4.00;;;28.20;80.70;;;;;;4943431;28;20028;-62
2023/06/17 11:06:52;;;;;;;5.97;5.13;;;28.30;80.30;;;;;;4950304;29;20031;-63
2023/06/17 11:09:17;;;;;;;7.63;4.43;;;28.40;79.50;;;;;;4945016;29;20075;-64
2023/06/17 11:11:43;;;;;;;6.93;4.55;;;28.50;79.30;;;;;;4942051;29;20032;-65
2023/06/17 11:14:09;;;;;;;5.25;4.70;;;28.70;73.20;;;;;;4945473;29;20027;-65
2023/06/17 11:16:34;;;;;;;5.95;4.38;;;28.90;71.20;;;;;;4941479;29;20028;-64
2023/06/17 11:19:00;;;;;;;4.40;4.00;;;29.00;70.70;;;;;;4944855;29;20461;-63
2023/06/17 11:21:25;;;;;;;4.90;4.22;;;29.00;71.10;;;;;;4946552;29;20086;-63
2023/06/17 11:23:52;;;;;;;6.30;4.60;;;29.20;70.50;;;;;;4953993;29;20058;-68
2023/06/17 11:26:18;;;;;;;5.53;4.53;;;29.40;70.60;;;;;;4952379;29;20028;-67
2023/06/17 11:28:44;;;;;;;5.85;4.88;;;29.10;70.10;;;;;;4943762;29;20027;-68
2023/06/17 11:31:10;;;;;;;4.85;4.35;;;28.90;70.30;;;;;;4945671;29;20063;-69
2023/06/17 11:33:36;;;;;;;7.20;4.50;;;28.90;70.80;;;;;;4945651;29;20031;-71
2023/06/17 11:36:03;;;;;;;5.68;4.00;;;28.60;71.70;;;;;;4944082;28;20110;-71
2023/06/17 11:38:29;;;;;;;6.53;3.90;;;28.40;71.60;;;;;;4946920;29;20038;-72
2023/06/17 11:40:57;;;;;;;4.53;4.13;;;28.40;72.10;;;;;;4943373;29;20503;-71
2023/06/17 11:43:26;;;;;;;9.02;5.10;;;28.60;71.60;;;;;;4944198;29;20420;-70
2023/06/17 11:45:58;;;;;;;4.63;4.10;;;28.90;71.10;;;;;;4952665;29;20039;-70
2023/06/17 11:48:33;;;;;;;6.10;4.57;;;29.30;71.00;;;;;;4955225;29;20395;-63
2023/06/17 11:50:59;;;;;;;6.18;4.15;;;29.60;81.40;;;;;;4948419;29;20474;-64
2023/06/17 11:53:38;;;;;;;6.53;4.35;;;29.90;77.70;;;;;;4955052;29;20122;-64
2023/06/17 11:56:08;;;;;;;5.07;4.57;;;30.10;74.70;;;;;;4954027;29;20030;-64
2023/06/17 11:58:41;;;;;;;7.78;5.03;;;30.20;69.50;;;;;;4953921;29;20039;-62
2023/06/17 12:01:11;;;;;;;7.30;4.80;;;30.10;68.00;;;;;;4951148;29;20125;-63
2023/06/17 12:03:46;;;;;;;4.75;4.28;;;29.90;68.60;;;;;;4944066;29;20366;-63
2023/06/17 12:06:21;;;;;;;4.82;4.32;;;29.70;68.50;;;;;;4948388;29;20027;-63
2023/06/17 12:09:07;;;;;;;6.10;4.55;;;29.60;65.70;;;;;;4942883;29;20031;-65
2023/06/17 12:11:37;;;;;;;7.03;4.22;;;29.70;53.90;;;;;;4942581;29;20035;-65
2023/06/17 12:14:13;;;;;;;5.15;4.13;;;29.80;53.80;;;;;;4939902;29;20095;-63
2023/06/17 12:16:41;;;;;;;8.73;4.80;;;30.00;54.50;;;;;;4946375;29;20102;-64
2023/06/17 12:19:36;;;;;;;12.82;4.88;;;30.20;53.50;;;;;;4953748;29;20071;-63
2023/06/17 12:22:01;;;;;;;5.55;4.18;;;30.20;52.60;;;;;;4954696;29;20043;-64
2023/06/17 12:24:27;;;;;;;6.32;4.20;;;30.10;52.60;;;;;;4951675;29;20098;-64
2023/06/17 12:26:58;;;;;;;12.20;4.47;;;30.20;52.80;;;;;;4953512;29;20122;-64
2023/06/17 12:29:26;;;;;;;6.45;4.90;;;30.10;52.40;;;;;;4948151;29;20050;-64
2023/06/17 12:31:57;;;;;;;5.35;4.72;;;29.80;53.40;;;;;;4947654;29;20046;-64
2023/06/17 12:34:22;;;;;;;4.85;4.30;;;29.40;53.20;;;;;;4949860;29;20038;-64
2023/06/17 12:36:48;;;;;;;8.35;4.80;;;29.20;53.80;;;;;;4952501;29;20393;-64
2023/06/17 12:39:19;;;;;;;4.82;4.32;;;29.20;53.60;;;;;;4947053;28;20027;-61
2023/06/17 12:41:45;;;;;;;4.82;4.25;;;29.50;53.70;;;;;;4950492;29;20027;-64
2023/06/17 12:44:11;;;;;;;5.40;4.32;;;29.80;53.50;;;;;;4951352;28;20525;-65
2023/06/17 12:46:41;;;;;;;4.72;4.32;;;30.10;52.80;;;;;;4951057;29;20027;-64
2023/06/17 12:49:22;;;;;;;;;;;30.40;52.30;;;;;;4939393;28;20039;-63
2023/06/17 12:51:48;;;;;;;5.30;4.13;;;30.60;52.20;;;;;;4948962;29;19916;-64
2023/06/17 12:54:13;;;;;;;4.30;3.90;;;30.90;51.50;;;;;;4951477;28;20110;-62
2023/06/17 12:56:45;;;;;;;4.38;3.97;;;30.80;51.50;;;;;;4950666;29;20047;-63
2023/06/17 12:59:19;;;;;;;4.57;4.18;;;30.60;51.40;;;;;;4946458;28;20034;-62
2023/06/17 13:01:45;;;;;;;5.43;4.60;;;30.50;51.80;;;;;;4952267;29;20043;-64
2023/06/17 13:04:13;;;;;;;6.55;4.15;;;30.30;51.40;;;;;;4945456;28;20102;-63
2023/06/17 13:06:39;;;;;;;5.63;4.10;;;30.00;51.00;;;;;;4951846;29;20114;-63
2023/06/17 13:09:10;;;;;;;5.53;3.63;;;29.70;51.70;;;;;;4944755;28;20115;-63
2023/06/17 13:11:36;;;;;;;4.20;3.75;;;29.60;51.70;;;;;;4950652;29;20453;-64
2023/06/17 13:14:04;;;;;;;6.88;4.07;;;29.80;50.90;;;;;;4949533;28;20027;-63